Time;durP1;ratioP1;P1;durP2;ratioP2;P2;SDS_P1;SDS_P2;PMS_P1;PMS_P2;Temp;Humidity;BMP_temperature;BMP_pressure;BME280_temperature;BME280_humidity;BME280_pressure;Samples;Min_cycle;Max_cycle;Signal;HPM_P1;HPM_P2
2022/03/14 00:00:42;;;;;;;22.15;12.82;;;;;;;;;;5044555;28;20688;-64
2022/03/14 00:03:08;;;;;;;25.27;12.70;;;;;;;;;;5044665;28;20049;-64
2022/03/14 00:05:34;;;;;;;24.92;12.23;;;;;;;;;;5044575;28;20045;-64
2022/03/14 00:08:01;;;;;;;21.42;12.10;;;;;;;;;;5009436;28;20091;-64
2022/03/14 00:10:28;;;;;;;25.38;11.48;;;;;;;;;;5044281;28;20498;-64
2022/03/14 00:12:56;;;;;;;19.95;11.32;;;;;;;;;;5044982;28;20041;-64
2022/03/14 00:15:23;;;;;;;21.13;12.20;;;;;;;;;;5044805;28;20041;-64
2022/03/14 00:17:50;;;;;;;21.08;11.82;;;;;;;;;;5044428;28;20116;-64
2022/03/14 00:20:16;;;;;;;21.30;11.77;;;;;;;;;;5044499;28;20053;-64
2022/03/14 00:22:45;;;;;;;20.80;11.73;;;;;;;;;;5043751;28;20037;-64
2022/03/14 00:25:11;;;;;;;22.88;12.05;;;;;;;;;;5044294;28;20080;-64
2022/03/14 00:27:38;;;;;;;22.02;11.82;;;;;;;;;;5044424;28;20033;-64
2022/03/14 00:30:05;;;;;;;19.35;10.95;;;;;;;;;;5026655;28;20056;-63
2022/03/14 00:32:31;;;;;;;17.10;10.40;;;;;;;;;;5043910;28;20064;-63
2022/03/14 00:34:57;;;;;;;23.40;11.07;;;;;;;;;;5043544;28;20235;-64
2022/03/14 00:37:24;;;;;;;18.27;10.70;;;;;;;;;;5044270;28;20041;-64
2022/03/14 00:39:53;;;;;;;20.15;10.82;;;;;;;;;;5044497;28;20041;-64
2022/03/14 00:42:21;;;;;;;19.95;10.00;;;;;;;;;;5044188;28;20059;-64
2022/03/14 00:44:47;;;;;;;19.83;10.20;;;;;;;;;;5043677;28;20512;-64
2022/03/14 00:47:14;;;;;;;16.25;9.90;;;;;;;;;;5042979;28;20483;-64
2022/03/14 00:49:40;;;;;;;18.85;10.35;;;;;;;;;;5043259;28;20513;-64
2022/03/14 00:52:06;;;;;;;17.13;10.15;;;;;;;;;;5043577;28;20041;-64
2022/03/14 00:54:32;;;;;;;16.60;9.98;;;;;;;;;;5043808;28;20441;-64
2022/03/14 00:56:59;;;;;;;15.52;9.18;;;;;;;;;;5043712;28;20463;-63
2022/03/14 00:59:25;;;;;;;17.45;10.13;;;;;;;;;;5043550;28;20046;-64
2022/03/14 01:01:51;;;;;;;18.00;10.98;;;;;;;;;;5043565;28;20044;-63
2022/03/14 01:04:18;;;;;;;21.73;10.48;;;;;;;;;;5043468;28;20115;-63
2022/03/14 01:06:44;;;;;;;15.52;9.70;;;;;;;;;;5043169;28;20495;-63
2022/03/14 01:09:11;;;;;;;16.73;9.88;;;;;;;;;;5042969;28;20037;-63
2022/03/14 01:11:38;;;;;;;16.65;8.70;;;;;;;;;;5043376;28;20067;-63
2022/03/14 01:14:05;;;;;;;14.90;8.63;;;;;;;;;;5043422;28;20413;-63
2022/03/14 01:16:31;;;;;;;15.95;8.75;;;;;;;;;;5042402;28;20056;-63
2022/03/14 01:18:58;;;;;;;16.02;9.02;;;;;;;;;;5043643;28;20087;-63
2022/03/14 01:21:24;;;;;;;15.32;9.35;;;;;;;;;;5044078;28;20033;-63
2022/03/14 01:23:50;;;;;;;17.10;9.25;;;;;;;;;;5043160;28;20550;-63
2022/03/14 01:26:17;;;;;;;14.95;8.40;;;;;;;;;;5043338;28;20052;-63
2022/03/14 01:28:43;;;;;;;14.50;7.60;;;;;;;;;;5043164;28;20135;-63
2022/03/14 01:31:10;;;;;;;14.23;8.10;;;;;;;;;;5042524;28;20088;-63
2022/03/14 01:33:36;;;;;;;13.43;8.13;;;;;;;;;;5042946;28;20068;-63
2022/03/14 01:36:02;;;;;;;14.00;8.05;;;;;;;;;;5043307;28;20068;-63
2022/03/14 01:38:28;;;;;;;12.57;7.75;;;;;;;;;;5042288;28;20596;-63
2022/03/14 01:40:55;;;;;;;15.85;8.20;;;;;;;;;;5043500;28;20049;-63
2022/03/14 01:43:26;;;;;;;14.60;8.45;;;;;;;;;;5043038;28;20049;-63
2022/03/14 01:45:57;;;;;;;13.65;8.32;;;;;;;;;;5043163;28;20713;-64
2022/03/14 01:48:24;;;;;;;13.60;7.93;;;;;;;;;;5043704;28;20037;-63
2022/03/14 01:50:51;;;;;;;11.63;7.35;;;;;;;;;;5043463;28;20128;-63
2022/03/14 01:53:18;;;;;;;12.80;7.35;;;;;;;;;;5042580;28;20048;-63
2022/03/14 01:55:45;;;;;;;11.35;6.60;;;;;;;;;;5042120;28;20411;-63
2022/03/14 01:58:11;;;;;;;12.35;6.80;;;;;;;;;;5042388;28;20048;-63
2022/03/14 02:00:38;;;;;;;10.85;6.03;;;;;;;;;;5042744;28;20120;-64
2022/03/14 02:03:04;;;;;;;11.55;6.53;;;;;;;;;;5042708;28;20057;-63
2022/03/14 02:05:33;;;;;;;12.32;6.15;;;;;;;;;;5042485;28;20110;-64
2022/03/14 02:07:59;;;;;;;11.60;6.22;;;;;;;;;;5042288;28;20033;-63
2022/03/14 02:10:25;;;;;;;9.70;5.50;;;;;;;;;;5042173;28;20495;-64
2022/03/14 02:12:51;;;;;;;11.77;6.43;;;;;;;;;;5042994;28;20190;-63
2022/03/14 02:15:17;;;;;;;10.15;5.85;;;;;;;;;;5043011;28;20041;-63
2022/03/14 02:17:43;;;;;;;8.25;5.40;;;;;;;;;;5042308;28;20068;-63
2022/03/14 02:20:10;;;;;;;11.55;5.35;;;;;;;;;;5042891;28;20490;-63
2022/03/14 02:22:36;;;;;;;9.38;5.55;;;;;;;;;;5041872;28;20079;-63
2022/03/14 02:25:02;;;;;;;8.50;5.50;;;;;;;;;;5041978;28;20045;-63
2022/03/14 02:27:29;;;;;;;9.30;5.80;;;;;;;;;;5042615;28;20124;-63
2022/03/14 02:29:55;;;;;;;13.48;5.28;;;;;;;;;;5042279;28;20059;-63
2022/03/14 02:32:22;;;;;;;8.48;5.30;;;;;;;;;;5043038;28;20055;-63
2022/03/14 02:34:48;;;;;;;10.13;5.57;;;;;;;;;;5038423;28;20037;-63
2022/03/14 02:37:14;;;;;;;9.23;5.65;;;;;;;;;;5041782;28;20052;-63
2022/03/14 02:39:40;;;;;;;9.05;5.78;;;;;;;;;;5041591;28;20049;-63
2022/03/14 02:42:07;;;;;;;10.75;5.68;;;;;;;;;;5042763;28;20090;-63
2022/03/14 02:44:34;;;;;;;8.50;5.35;;;;;;;;;;5042262;28;20047;-63
2022/03/14 02:47:04;;;;;;;8.15;4.93;;;;;;;;;;5024586;28;20049;-63
2022/03/14 02:49:31;;;;;;;9.38;5.72;;;;;;;;;;5042319;28;20040;-63
2022/03/14 02:51:57;;;;;;;11.00;6.03;;;;;;;;;;5037041;28;20041;-63
2022/03/14 02:54:23;;;;;;;9.20;6.05;;;;;;;;;;5042842;28;20077;-63
2022/03/14 02:56:49;;;;;;;9.23;5.45;;;;;;;;;;5042319;28;20155;-63
2022/03/14 02:59:16;;;;;;;7.00;4.93;;;;;;;;;;5038506;28;20053;-63
2022/03/14 03:01:42;;;;;;;6.47;4.25;;;;;;;;;;5042033;28;20044;-63
2022/03/14 03:04:09;;;;;;;6.57;4.47;;;;;;;;;;5041609;28;20068;-63
2022/03/14 03:06:36;;;;;;;9.35;4.55;;;;;;;;;;5040674;28;20056;-63
2022/03/14 03:09:03;;;;;;;7.00;4.60;;;;;;;;;;5042751;28;20052;-64
2022/03/14 03:11:30;;;;;;;7.18;4.43;;;;;;;;;;5045808;28;20052;-64
2022/03/14 03:13:56;;;;;;;7.20;4.57;;;;;;;;;;5045576;28;20132;-64
2022/03/14 03:16:23;;;;;;;9.15;5.00;;;;;;;;;;5046053;28;20124;-64
2022/03/14 03:18:49;;;;;;;6.57;4.03;;;;;;;;;;5045235;28;20045;-64
2022/03/14 03:21:16;;;;;;;6.53;4.25;;;;;;;;;;5045478;28;20457;-64
2022/03/14 03:23:42;;;;;;;7.68;4.70;;;;;;;;;;5044837;28;20562;-63
2022/03/14 03:26:09;;;;;;;7.10;4.15;;;;;;;;;;5045666;28;20033;-63
2022/03/14 03:28:35;;;;;;;6.20;4.35;;;;;;;;;;5045683;28;20082;-63
2022/03/14 03:31:04;;;;;;;6.65;4.18;;;;;;;;;;5045365;28;20171;-63
2022/03/14 03:33:30;;;;;;;;;;;;;;;;;;5045339;28;20087;-63
2022/03/14 03:35:57;;;;;;;6.53;4.00;;;;;;;;;;5042707;28;19920;-63
2022/03/14 03:38:23;;;;;;;6.35;3.80;;;;;;;;;;5037158;28;20040;-63
2022/03/14 03:40:49;;;;;;;7.25;3.50;;;;;;;;;;5045091;28;20045;-63
2022/03/14 03:43:15;;;;;;;5.85;3.55;;;;;;;;;;5045392;28;20132;-63
2022/03/14 03:45:42;;;;;;;5.95;3.35;;;;;;;;;;5044589;28;20045;-64
2022/03/14 03:48:08;;;;;;;6.05;3.65;;;;;;;;;;5044707;28;20037;-63
2022/03/14 03:50:34;;;;;;;6.60;3.83;;;;;;;;;;5044650;28;20037;-63
2022/03/14 03:53:00;;;;;;;5.82;3.60;;;;;;;;;;5044639;28;20047;-64
2022/03/14 03:55:26;;;;;;;6.35;3.55;;;;;;;;;;5044983;28;20033;-63
2022/03/14 03:57:52;;;;;;;5.97;3.22;;;;;;;;;;5045292;28;20045;-63
2022/03/14 04:00:19;;;;;;;6.78;3.58;;;;;;;;;;5044778;28;20124;-63
2022/03/14 04:02:45;;;;;;;4.93;3.30;;;;;;;;;;5044531;28;20075;-63
2022/03/14 04:05:16;;;;;;;6.22;3.10;;;;;;;;;;5044899;28;20501;-63
2022/03/14 04:07:43;;;;;;;6.00;3.05;;;;;;;;;;5044154;28;20045;-63
2022/03/14 04:10:12;;;;;;;6.88;3.58;;;;;;;;;;5041138;28;20651;-63
2022/03/14 04:12:39;;;;;;;5.38;3.70;;;;;;;;;;5026516;28;20056;-63
2022/03/14 04:15:09;;;;;;;6.68;3.40;;;;;;;;;;5040622;28;20064;-63
2022/03/14 04:17:35;;;;;;;10.52;3.35;;;;;;;;;;5044375;28;20053;-63
2022/03/14 04:20:02;;;;;;;5.53;3.20;;;;;;;;;;5044520;28;20037;-64
2022/03/14 04:22:29;;;;;;;4.57;3.15;;;;;;;;;;5042877;28;20091;-63
2022/03/14 04:24:55;;;;;;;6.53;3.13;;;;;;;;;;5044476;28;20048;-64
2022/03/14 04:27:23;;;;;;;4.65;3.20;;;;;;;;;;5044224;28;20053;-63
2022/03/14 04:29:49;;;;;;;4.40;2.97;;;;;;;;;;5040329;28;20139;-64
2022/03/14 04:32:16;;;;;;;4.53;2.83;;;;;;;;;;5044311;28;20136;-63
2022/03/14 04:34:42;;;;;;;4.60;3.00;;;;;;;;;;5040294;28;20069;-62
2022/03/14 04:37:09;;;;;;;7.63;2.85;;;;;;;;;;5043480;28;20091;-63
2022/03/14 04:39:35;;;;;;;4.60;2.97;;;;;;;;;;5043684;28;20449;-63
2022/03/14 04:42:01;;;;;;;5.28;3.60;;;;;;;;;;5043945;28;20449;-63
2022/03/14 04:44:28;;;;;;;6.45;3.00;;;;;;;;;;5043813;28;20406;-62
2022/03/14 04:46:55;;;;;;;5.20;2.92;;;;;;;;;;5043990;28;20442;-63
2022/03/14 04:49:21;;;;;;;5.68;3.40;;;;;;;;;;5044277;28;20125;-63
2022/03/14 04:51:50;;;;;;;4.03;2.92;;;;;;;;;;5043046;28;20128;-63
2022/03/14 04:54:16;;;;;;;3.88;2.67;;;;;;;;;;5043295;28;20080;-62
2022/03/14 04:56:42;;;;;;;4.55;2.63;;;;;;;;;;5041386;28;20120;-63
2022/03/14 04:59:08;;;;;;;5.15;2.75;;;;;;;;;;5039925;28;20041;-63
2022/03/14 05:01:34;;;;;;;5.07;3.00;;;;;;;;;;5040925;28;20110;-63
2022/03/14 05:04:01;;;;;;;4.95;3.00;;;;;;;;;;5043074;28;20056;-64
2022/03/14 05:06:27;;;;;;;5.65;2.80;;;;;;;;;;5039470;28;20540;-63
2022/03/14 05:08:53;;;;;;;5.68;2.72;;;;;;;;;;5042913;28;20033;-63
2022/03/14 05:11:19;;;;;;;4.82;3.03;;;;;;;;;;5041964;28;20049;-64
2022/03/14 05:13:46;;;;;;;3.90;2.60;;;;;;;;;;5041041;28;20170;-63
2022/03/14 05:16:12;;;;;;;4.00;2.70;;;;;;;;;;5043069;28;20041;-63
2022/03/14 05:18:38;;;;;;;5.65;3.00;;;;;;;;;;5041729;28;20045;-63
2022/03/14 05:21:05;;;;;;;5.70;2.58;;;;;;;;;;5041320;28;20207;-63
2022/03/14 05:23:31;;;;;;;3.33;2.22;;;;;;;;;;5034062;28;20054;-63
2022/03/14 05:25:57;;;;;;;5.50;3.08;;;;;;;;;;5040209;28;20037;-63
2022/03/14 05:28:24;;;;;;;5.07;2.85;;;;;;;;;;5041552;28;20076;-63
2022/03/14 05:30:50;;;;;;;5.47;3.28;;;;;;;;;;5040693;28;20120;-63
2022/03/14 05:33:16;;;;;;;4.63;2.90;;;;;;;;;;5041019;28;20432;-62
2022/03/14 05:35:42;;;;;;;6.65;2.95;;;;;;;;;;5040747;28;20037;-62
2022/03/14 05:38:08;;;;;;;4.47;2.70;;;;;;;;;;5041191;28;20479;-62
2022/03/14 05:40:35;;;;;;;4.05;2.88;;;;;;;;;;5038949;28;20534;-62
2022/03/14 05:43:06;;;;;;;5.80;3.30;;;;;;;;;;5038167;28;20041;-62
2022/03/14 05:45:32;;;;;;;5.38;3.08;;;;;;;;;;5042177;28;20340;-62
2022/03/14 05:47:58;;;;;;;4.85;2.95;;;;;;;;;;5042640;28;20736;-62
2022/03/14 05:50:25;;;;;;;5.97;3.47;;;;;;;;;;5042389;28;20120;-62
2022/03/14 05:52:51;;;;;;;5.50;3.47;;;;;;;;;;5043017;28;20500;-62
2022/03/14 05:55:18;;;;;;;5.00;2.95;;;;;;;;;;5039020;28;20475;-62
2022/03/14 05:57:45;;;;;;;6.63;3.42;;;;;;;;;;5042020;28;20402;-62
2022/03/14 06:00:12;;;;;;;8.93;3.05;;;;;;;;;;5043022;28;20088;-63
2022/03/14 06:02:39;;;;;;;10.27;3.35;;;;;;;;;;5042589;28;20084;-64
2022/03/14 06:05:05;;;;;;;6.60;3.25;;;;;;;;;;5042351;28;20076;-64
2022/03/14 06:07:32;;;;;;;5.88;3.28;;;;;;;;;;5041723;28;20053;-64
2022/03/14 06:09:58;;;;;;;8.18;3.70;;;;;;;;;;5042104;28;20303;-63
2022/03/14 06:12:31;;;;;;;6.10;3.45;;;;;;;;;;5039806;28;20068;-63
2022/03/14 06:15:00;;;;;;;7.05;3.58;;;;;;;;;;5035931;28;20044;-63
2022/03/14 06:17:26;;;;;;;6.20;3.67;;;;;;;;;;5027578;28;20041;-63
2022/03/14 06:19:52;;;;;;;6.55;3.13;;;;;;;;;;5025385;28;20042;-62
2022/03/14 06:22:19;;;;;;;6.88;3.50;;;;;;;;;;5021860;28;20042;-62
2022/03/14 06:24:47;;;;;;;5.55;3.33;;;;;;;;;;5029743;28;20041;-62
2022/03/14 06:27:15;;;;;;;5.10;3.47;;;;;;;;;;5028487;28;20077;-62
2022/03/14 06:29:42;;;;;;;6.75;3.70;;;;;;;;;;5029489;28;20053;-62
2022/03/14 06:32:08;;;;;;;5.38;3.22;;;;;;;;;;5028852;28;20053;-62
2022/03/14 06:34:35;;;;;;;6.43;3.58;;;;;;;;;;5026682;28;20974;-62
2022/03/14 06:37:01;;;;;;;6.07;3.08;;;;;;;;;;5023400;28;20042;-62
2022/03/14 06:39:27;;;;;;;6.13;3.47;;;;;;;;;;5023628;28;20191;-62
2022/03/14 06:41:53;;;;;;;5.55;3.47;;;;;;;;;;5030164;28;20045;-63
2022/03/14 06:44:24;;;;;;;5.63;3.50;;;;;;;;;;5015989;28;20040;-62
2022/03/14 06:46:52;;;;;;;6.47;3.03;;;;;;;;;;5035139;28;20404;-62
2022/03/14 06:49:19;;;;;;;4.70;3.20;;;;;;;;;;5037839;28;20049;-62
2022/03/14 06:51:46;;;;;;;6.90;3.60;;;;;;;;;;5040091;28;20052;-62
2022/03/14 06:54:12;;;;;;;5.38;3.22;;;;;;;;;;5045900;28;20047;-61
2022/03/14 06:56:38;;;;;;;7.05;3.80;;;;;;;;;;5045799;28;20487;-61
2022/03/14 06:59:04;;;;;;;5.60;3.78;;;;;;;;;;5045916;28;20688;-61
2022/03/14 07:01:31;;;;;;;5.47;3.47;;;;;;;;;;5038435;28;20060;-63
2022/03/14 07:03:57;;;;;;;6.45;3.70;;;;;;;;;;5045621;28;20053;-61
2022/03/14 07:06:23;;;;;;;5.93;3.60;;;;;;;;;;5044661;28;20443;-62
2022/03/14 07:08:49;;;;;;;7.07;4.03;;;;;;;;;;5046107;28;20040;-62
2022/03/14 07:11:16;;;;;;;6.93;3.63;;;;;;;;;;5026998;28;20139;-62
2022/03/14 07:13:42;;;;;;;5.32;3.50;;;;;;;;;;5045484;28;20045;-62
2022/03/14 07:16:08;;;;;;;8.80;3.95;;;;;;;;;;5045713;28;20037;-62
2022/03/14 07:18:34;;;;;;;6.20;3.97;;;;;;;;;;5045578;28;20460;-62
2022/03/14 07:21:01;;;;;;;6.10;4.07;;;;;;;;;;5043999;28;20041;-62
2022/03/14 07:23:27;;;;;;;8.13;4.18;;;;;;;;;;5045426;28;20395;-62
2022/03/14 07:25:53;;;;;;;9.05;3.80;;;;;;;;;;5046205;28;20475;-62
2022/03/14 07:28:19;;;;;;;5.60;4.07;;;;;;;;;;5045691;28;20503;-62
2022/03/14 07:30:45;;;;;;;6.57;3.85;;;;;;;;;;5044802;28;20051;-62
2022/03/14 07:33:12;;;;;;;6.40;3.95;;;;;;;;;;5045578;28;20067;-62
2022/03/14 07:35:38;;;;;;;9.18;3.95;;;;;;;;;;5044410;28;20029;-62
2022/03/14 07:38:05;;;;;;;8.32;3.85;;;;;;;;;;5044786;28;20040;-62
2022/03/14 07:40:31;;;;;;;6.97;4.32;;;;;;;;;;5026691;28;20572;-62
2022/03/14 07:42:59;;;;;;;6.03;3.72;;;;;;;;;;5045515;28;20390;-62
2022/03/14 07:45:26;;;;;;;7.25;4.60;;;;;;;;;;5044478;28;20048;-63
2022/03/14 07:47:53;;;;;;;6.82;4.03;;;;;;;;;;5044854;28;20037;-62
2022/03/14 07:50:19;;;;;;;6.18;4.40;;;;;;;;;;5045034;28;20045;-62
2022/03/14 07:52:47;;;;;;;11.35;5.10;;;;;;;;;;5043840;28;20498;-63
2022/03/14 07:55:13;;;;;;;7.53;4.67;;;;;;;;;;5044977;28;20048;-62
2022/03/14 07:57:40;;;;;;;6.00;3.97;;;;;;;;;;5045080;28;20095;-62
2022/03/14 08:00:09;;;;;;;7.43;4.63;;;;;;;;;;5044719;28;20494;-62
2022/03/14 08:02:35;;;;;;;8.18;4.43;;;;;;;;;;5044094;28;20056;-62
2022/03/14 08:05:01;;;;;;;11.05;4.40;;;;;;;;;;5045090;28;20055;-62
2022/03/14 08:07:28;;;;;;;7.40;4.50;;;;;;;;;;5043945;28;20482;-63
2022/03/14 08:09:55;;;;;;;8.38;4.80;;;;;;;;;;5045103;28;20127;-63
2022/03/14 08:12:22;;;;;;;7.68;4.90;;;;;;;;;;5045104;28;20094;-63
2022/03/14 08:14:49;;;;;;;8.68;4.30;;;;;;;;;;5043708;28;20052;-63
2022/03/14 08:17:17;;;;;;;9.48;5.10;;;;;;;;;;5044678;28;20204;-62
2022/03/14 08:19:44;;;;;;;14.35;4.82;;;;;;;;;;5044575;28;20037;-63
2022/03/14 08:22:10;;;;;;;10.10;5.00;;;;;;;;;;5043907;28;20577;-63
2022/03/14 08:24:36;;;;;;;13.23;5.15;;;;;;;;;;5044825;28;20040;-63
2022/03/14 08:27:02;;;;;;;13.90;5.82;;;;;;;;;;5044194;28;20487;-63
2022/03/14 08:29:29;;;;;;;7.97;5.05;;;;;;;;;;5043721;28;20049;-63
2022/03/14 08:31:58;;;;;;;7.60;4.85;;;;;;;;;;5044212;28;20178;-63
2022/03/14 08:34:24;;;;;;;7.55;5.25;;;;;;;;;;5044819;28;20037;-62
2022/03/14 08:36:50;;;;;;;7.53;5.18;;;;;;;;;;5043865;28;20044;-62
2022/03/14 08:39:16;;;;;;;8.23;4.93;;;;;;;;;;5044323;28;20037;-62
2022/03/14 08:41:42;;;;;;;10.57;5.13;;;;;;;;;;5025425;28;20037;-62
2022/03/14 08:44:09;;;;;;;8.68;5.30;;;;;;;;;;5043815;28;20047;-62
2022/03/14 08:46:35;;;;;;;14.23;6.63;;;;;;;;;;5043587;28;20575;-62
2022/03/14 08:49:02;;;;;;;9.82;5.22;;;;;;;;;;5044254;28;20039;-62
2022/03/14 08:51:28;;;;;;;13.13;5.93;;;;;;;;;;5043183;28;20088;-62
2022/03/14 08:53:55;;;;;;;12.27;5.22;;;;;;;;;;5043911;28;20126;-62
2022/03/14 08:56:21;;;;;;;13.65;5.43;;;;;;;;;;5043809;28;20089;-62
2022/03/14 08:58:48;;;;;;;10.50;5.63;;;;;;;;;;5039736;28;20037;-62
2022/03/14 09:01:15;;;;;;;7.63;5.38;;;;;;;;;;5043788;28;20049;-62
2022/03/14 09:03:42;;;;;;;11.27;5.95;;;;;;;;;;5043221;28;20075;-62
2022/03/14 09:06:09;;;;;;;10.48;6.70;;;;;;;;;;5042979;28;20048;-62
2022/03/14 09:08:35;;;;;;;11.02;6.78;;;;;;;;;;5041875;28;20519;-62
2022/03/14 09:11:02;;;;;;;13.85;8.10;;;;;;;;;;5043773;28;20037;-62
2022/03/14 09:13:29;;;;;;;16.23;8.95;;;;;;;;;;5038942;28;20049;-62
2022/03/14 09:15:55;;;;;;;23.13;11.32;;;;;;;;;;5043563;28;20483;-62
2022/03/14 09:18:22;;;;;;;17.38;10.30;;;;;;;;;;5044221;28;20082;-61
2022/03/14 09:20:49;;;;;;;16.95;10.30;;;;;;;;;;5042303;28;20049;-61
2022/03/14 09:23:20;;;;;;;18.52;10.55;;;;;;;;;;5042891;28;20075;-61
2022/03/14 09:25:47;;;;;;;18.52;11.55;;;;;;;;;;5043183;28;20405;-61
2022/03/14 09:28:13;;;;;;;21.05;10.80;;;;;;;;;;5043287;28;20072;-61
2022/03/14 09:30:40;;;;;;;18.58;10.82;;;;;;;;;;5043157;28;20044;-62
2022/03/14 09:33:06;;;;;;;19.80;11.07;;;;;;;;;;5043181;28;20075;-62
2022/03/14 09:35:34;;;;;;;20.52;11.65;;;;;;;;;;5041745;28;20418;-62
2022/03/14 09:38:00;;;;;;;18.13;10.33;;;;;;;;;;5025885;28;20542;-61
2022/03/14 09:40:30;;;;;;;20.50;11.50;;;;;;;;;;5043119;28;20081;-62
2022/03/14 09:42:59;;;;;;;21.90;11.38;;;;;;;;;;5043355;28;20157;-62
2022/03/14 09:45:25;;;;;;;20.02;11.15;;;;;;;;;;5042828;28;20383;-62
2022/03/14 09:47:52;;;;;;;21.48;11.23;;;;;;;;;;5042623;28;20041;-61
2022/03/14 09:50:31;;;;;;;21.83;11.48;;;;;;;;;;5042855;28;20403;-61
2022/03/14 09:52:58;;;;;;;18.23;10.68;;;;;;;;;;5042945;28;20040;-61
2022/03/14 09:55:25;;;;;;;27.30;12.32;;;;;;;;;;5043032;28;20041;-62
2022/03/14 09:57:52;;;;;;;24.17;12.02;;;;;;;;;;5043081;28;20049;-61
2022/03/14 10:00:19;;;;;;;20.05;11.10;;;;;;;;;;5042918;28;20116;-61
2022/03/14 10:02:45;;;;;;;21.45;11.23;;;;;;;;;;5042541;28;20526;-61
2022/03/14 10:05:15;;;;;;;23.55;11.82;;;;;;;;;;5042674;28;20040;-61
2022/03/14 10:07:43;;;;;;;17.13;10.15;;;;;;;;;;5041861;28;20041;-62
2022/03/14 10:10:09;;;;;;;19.88;9.90;;;;;;;;;;5042842;28;20049;-62
2022/03/14 10:12:35;;;;;;;19.58;9.82;;;;;;;;;;5042537;28;20043;-62
2022/03/14 10:15:03;;;;;;;19.40;9.48;;;;;;;;;;5042962;28;20069;-61
2022/03/14 10:17:31;;;;;;;24.10;9.38;;;;;;;;;;5042386;28;20410;-62
2022/03/14 10:19:59;;;;;;;18.20;9.43;;;;;;;;;;5025942;28;20056;-62
2022/03/14 10:22:25;;;;;;;18.40;8.77;;;;;;;;;;5028105;28;20072;-62
2022/03/14 10:25:03;;;;;;;18.48;8.48;;;;;;;;;;5046629;28;20056;-62
2022/03/14 10:27:29;;;;;;;19.05;8.73;;;;;;;;;;5046663;28;20063;-61
2022/03/14 10:29:55;;;;;;;18.85;8.65;;;;;;;;;;5046721;28;20048;-62
2022/03/14 10:32:30;;;;;;;14.65;7.00;;;;;;;;;;5046903;28;20127;-62
2022/03/14 10:35:04;;;;;;;17.50;8.15;;;;;;;;;;5044925;28;20123;-62
2022/03/14 10:37:31;;;;;;;19.48;8.00;;;;;;;;;;5044038;28;20112;-61
2022/03/14 10:39:59;;;;;;;17.15;7.95;;;;;;;;;;5046026;28;20037;-62
2022/03/14 10:42:25;;;;;;;17.03;7.27;;;;;;;;;;5046509;28;20044;-62
2022/03/14 10:44:53;;;;;;;19.63;7.70;;;;;;;;;;5046809;28;20033;-61
2022/03/14 10:47:20;;;;;;;17.20;6.70;;;;;;;;;;5045478;28;20051;-61
2022/03/14 10:49:47;;;;;;;14.32;6.38;;;;;;;;;;5046329;28;20124;-61
2022/03/14 10:52:14;;;;;;;15.77;6.10;;;;;;;;;;5045648;28;20041;-62
2022/03/14 10:54:42;;;;;;;14.93;6.47;;;;;;;;;;5041840;28;20123;-62
2022/03/14 10:57:11;;;;;;;18.02;7.03;;;;;;;;;;5045839;28;20041;-62
2022/03/14 10:59:39;;;;;;;15.07;6.95;;;;;;;;;;5045140;28;20037;-62
2022/03/14 11:02:07;;;;;;;19.85;7.47;;;;;;;;;;5045949;28;20076;-62
2022/03/14 11:04:40;;;;;;;13.88;6.30;;;;;;;;;;5045844;28;20149;-62
2022/03/14 11:07:06;;;;;;;14.35;5.57;;;;;;;;;;5044758;28;20045;-62
2022/03/14 11:09:46;;;;;;;15.98;5.88;;;;;;;;;;5045153;28;20547;-62
2022/03/14 11:12:13;;;;;;;15.55;6.13;;;;;;;;;;5045457;28;20049;-62
2022/03/14 11:14:40;;;;;;;11.68;5.22;;;;;;;;;;5045390;28;20041;-62
2022/03/14 11:17:15;;;;;;;17.05;6.57;;;;;;;;;;5045604;28;20495;-62
2022/03/14 11:19:42;;;;;;;17.50;6.43;;;;;;;;;;5044731;28;20043;-62
2022/03/14 11:22:11;;;;;;;17.75;7.88;;;;;;;;;;5044949;28;20041;-62
2022/03/14 11:24:40;;;;;;;22.30;10.98;;;;;;;;;;5045168;28;20037;-62
2022/03/14 11:27:08;;;;;;;23.10;10.43;;;;;;;;;;5045300;28;20457;-62
2022/03/14 11:29:36;;;;;;;26.88;10.88;;;;;;;;;;5045224;28;20037;-62
2022/03/14 11:32:02;;;;;;;22.02;11.50;;;;;;;;;;5044454;28;21005;-62
2022/03/14 11:34:30;;;;;;;23.25;11.05;;;;;;;;;;5044887;28;20136;-62
2022/03/14 11:36:58;;;;;;;22.52;10.48;;;;;;;;;;5044513;28;20037;-62
2022/03/14 11:39:27;;;;;;;18.83;10.63;;;;;;;;;;5045499;28;20087;-62
2022/03/14 11:41:54;;;;;;;23.98;10.35;;;;;;;;;;5045595;28;20037;-62
2022/03/14 11:44:21;;;;;;;24.00;10.23;;;;;;;;;;5045047;28;20041;-62
2022/03/14 11:46:47;;;;;;;20.67;9.88;;;;;;;;;;5043808;28;20148;-62
2022/03/14 11:49:14;;;;;;;20.98;10.00;;;;;;;;;;5044225;28;20041;-62
2022/03/14 11:51:41;;;;;;;21.42;9.30;;;;;;;;;;5043895;28;20077;-62
2022/03/14 11:54:11;;;;;;;19.63;9.98;;;;;;;;;;5043923;28;20667;-63
2022/03/14 11:56:38;;;;;;;18.23;9.10;;;;;;;;;;5043950;28;20037;-62
2022/03/14 11:59:09;;;;;;;23.30;10.20;;;;;;;;;;5044520;28;20056;-63
2022/03/14 12:01:35;;;;;;;19.80;9.48;;;;;;;;;;5041280;28;20694;-63
2022/03/14 12:04:03;;;;;;;21.08;10.55;;;;;;;;;;5038982;28;20053;-63
2022/03/14 12:06:47;;;;;;;26.67;9.60;;;;;;;;;;5043209;28;20449;-63
2022/03/14 12:09:25;;;;;;;24.08;11.00;;;;;;;;;;5041872;28;20096;-63
2022/03/14 12:11:52;;;;;;;18.95;10.57;;;;;;;;;;5044160;28;20479;-62
2022/03/14 12:14:37;;;;;;;24.48;11.13;;;;;;;;;;5044306;28;20558;-63
2022/03/14 12:17:07;;;;;;;18.95;10.75;;;;;;;;;;5025609;28;20049;-63
2022/03/14 12:19:42;;;;;;;23.65;11.70;;;;;;;;;;5044137;28;20036;-62
2022/03/14 12:22:13;;;;;;;27.17;12.48;;;;;;;;;;5042811;28;20052;-62
2022/03/14 12:24:39;;;;;;;23.77;13.13;;;;;;;;;;5042760;28;20122;-62
2022/03/14 12:27:16;;;;;;;23.25;13.77;;;;;;;;;;5040345;28;20048;-62
2022/03/14 12:29:43;;;;;;;23.88;13.25;;;;;;;;;;5042038;28;20045;-62
2022/03/14 12:32:24;;;;;;;27.55;13.07;;;;;;;;;;5043677;28;20125;-62
2022/03/14 12:35:01;;;;;;;28.00;14.10;;;;;;;;;;5040122;28;20051;-62
2022/03/14 12:37:36;;;;;;;25.55;14.27;;;;;;;;;;5043549;28;20048;-63
2022/03/14 12:40:04;;;;;;;24.67;14.15;;;;;;;;;;5043568;28;20037;-62
2022/03/14 12:42:37;;;;;;;26.13;14.85;;;;;;;;;;5040882;28;20048;-62
2022/03/14 12:45:14;;;;;;;26.48;15.65;;;;;;;;;;5043162;28;20037;-62
2022/03/14 12:47:41;;;;;;;26.20;15.10;;;;;;;;;;5043394;28;20407;-62
2022/03/14 12:50:07;;;;;;;30.02;15.65;;;;;;;;;;5042944;28;20033;-63
2022/03/14 12:52:53;;;;;;;27.70;15.15;;;;;;;;;;5043244;28;20045;-62
2022/03/14 12:55:20;;;;;;;26.27;13.98;;;;;;;;;;5043371;28;20045;-62
2022/03/14 12:57:52;;;;;;;30.77;15.73;;;;;;;;;;5043713;28;20049;-62
2022/03/14 13:00:19;;;;;;;22.70;14.32;;;;;;;;;;5043456;28;20056;-62
2022/03/14 13:02:45;;;;;;;27.52;13.80;;;;;;;;;;5043276;28;20233;-62
2022/03/14 13:05:11;;;;;;;23.00;14.18;;;;;;;;;;5042345;28;20032;-62
2022/03/14 13:07:38;;;;;;;23.92;11.43;;;;;;;;;;5043367;28;20045;-62
2022/03/14 13:10:04;;;;;;;22.95;12.32;;;;;;;;;;5043607;28;20029;-62
2022/03/14 13:12:30;;;;;;;31.70;13.05;;;;;;;;;;5039452;28;20262;-62
2022/03/14 13:15:04;;;;;;;24.67;13.00;;;;;;;;;;5043181;28;20041;-62
2022/03/14 13:17:31;;;;;;;25.38;11.80;;;;;;;;;;5042638;28;20308;-62
2022/03/14 13:19:57;;;;;;;20.15;8.98;;;;;;;;;;5042502;28;20056;-63
2022/03/14 13:22:23;;;;;;;21.38;10.82;;;;;;;;;;5043590;28;20136;-62
2022/03/14 13:24:53;;;;;;;22.05;9.48;;;;;;;;;;5042894;28;20047;-62
2022/03/14 13:27:25;;;;;;;18.35;9.82;;;;;;;;;;5043152;28;20126;-62
2022/03/14 13:29:52;;;;;;;16.63;9.82;;;;;;;;;;5038854;28;20044;-62
2022/03/14 13:32:20;;;;;;;22.75;10.55;;;;;;;;;;5043031;28;20522;-62
2022/03/14 13:35:06;;;;;;;19.75;10.40;;;;;;;;;;5043154;28;20045;-63
2022/03/14 13:37:41;;;;;;;19.50;10.50;;;;;;;;;;5042416;28;20045;-63
2022/03/14 13:40:20;;;;;;;22.98;10.32;;;;;;;;;;5042926;28;20505;-62
2022/03/14 13:42:47;;;;;;;17.80;9.85;;;;;;;;;;5042944;28;20037;-63
2022/03/14 13:45:13;;;;;;;20.65;9.38;;;;;;;;;;5042630;28;20041;-63
2022/03/14 13:47:40;;;;;;;18.25;9.50;;;;;;;;;;5038873;28;20060;-63
2022/03/14 13:50:07;;;;;;;21.52;9.82;;;;;;;;;;5041795;28;20037;-62
2022/03/14 13:52:33;;;;;;;19.48;10.27;;;;;;;;;;5042479;28;20040;-63
2022/03/14 13:54:59;;;;;;;18.33;9.18;;;;;;;;;;5042674;28;20041;-62
2022/03/14 13:57:25;;;;;;;16.35;8.48;;;;;;;;;;5042656;28;20060;-63
2022/03/14 13:59:52;;;;;;;18.40;8.80;;;;;;;;;;5043033;28;20052;-62
2022/03/14 14:02:20;;;;;;;20.10;8.70;;;;;;;;;;5042174;28;20483;-62
2022/03/14 14:04:47;;;;;;;16.08;7.78;;;;;;;;;;5038538;28;20119;-63
2022/03/14 14:07:22;;;;;;;16.00;7.68;;;;;;;;;;5042594;28;20049;-62
2022/03/14 14:09:49;;;;;;;18.63;7.55;;;;;;;;;;5042406;28;20040;-62
2022/03/14 14:12:17;;;;;;;17.27;7.38;;;;;;;;;;5042838;28;20057;-62
2022/03/14 14:14:46;;;;;;;14.25;7.65;;;;;;;;;;5038043;28;20052;-62
2022/03/14 14:17:18;;;;;;;14.35;7.15;;;;;;;;;;5042453;28;20049;-63
2022/03/14 14:20:03;;;;;;;23.35;9.07;;;;;;;;;;5042039;28;20110;-63
2022/03/14 14:22:30;;;;;;;19.45;8.63;;;;;;;;;;5040242;28;20056;-63
2022/03/14 14:24:57;;;;;;;15.70;7.25;;;;;;;;;;5042348;28;20411;-63
2022/03/14 14:27:26;;;;;;;18.52;8.57;;;;;;;;;;5042910;28;20487;-63
2022/03/14 14:29:55;;;;;;;18.58;8.25;;;;;;;;;;5042766;28;20261;-63
2022/03/14 14:32:21;;;;;;;20.05;8.93;;;;;;;;;;5042734;28;20120;-63
2022/03/14 14:34:48;;;;;;;19.58;8.02;;;;;;;;;;5041093;28;20111;-62